sensor_id;sensor_type;location;lat;lon;timestamp;temperature;humidity
45843;DHT22;31563;51.744;8.252;2022-09-13T00:01:00;27.90;43.70
45843;DHT22;31563;51.744;8.252;2022-09-13T00:03:28;27.90;43.70
45843;DHT22;31563;51.744;8.252;2022-09-13T00:08:25;27.30;63.30
45843;DHT22;31563;51.744;8.252;2022-09-13T00:10:54;27.90;43.70
45843;DHT22;31563;51.744;8.252;2022-09-13T00:13:23;27.90;43.80
45843;DHT22;31563;51.744;8.252;2022-09-13T00:15:52;27.80;43.70
45843;DHT22;31563;51.744;8.252;2022-09-13T00:18:21;27.80;43.70
45843;DHT22;31563;51.744;8.252;2022-09-13T00:20:50;27.80;43.70
45843;DHT22;31563;51.744;8.252;2022-09-13T00:23:18;27.80;43.60
45843;DHT22;31563;51.744;8.252;2022-09-13T00:25:46;27.80;43.70
45843;DHT22;31563;51.744;8.252;2022-09-13T00:28:14;27.80;43.70
45843;DHT22;31563;51.744;8.252;2022-09-13T00:30:42;27.80;43.70
45843;DHT22;31563;51.744;8.252;2022-09-13T00:33:12;27.80;43.70
45843;DHT22;31563;51.744;8.252;2022-09-13T00:35:40;27.80;43.60
45843;DHT22;31563;51.744;8.252;2022-09-13T00:38:08;27.80;43.70
45843;DHT22;31563;51.744;8.252;2022-09-13T00:40:37;27.70;43.60
45843;DHT22;31563;51.744;8.252;2022-09-13T00:43:11;27.70;43.60
45843;DHT22;31563;51.744;8.252;2022-09-13T00:45:43;27.70;43.70
45843;DHT22;31563;51.744;8.252;2022-09-13T00:48:17;27.30;65.50
45843;DHT22;31563;51.744;8.252;2022-09-13T00:50:50;27.70;43.00
45843;DHT22;31563;51.744;8.252;2022-09-13T00:53:23;27.70;43.60
45843;DHT22;31563;51.744;8.252;2022-09-13T00:55:56;27.70;43.80
45843;DHT22;31563;51.744;8.252;2022-09-13T00:58:31;27.70;43.80
45843;DHT22;31563;51.744;8.252;2022-09-13T01:01:02;27.70;43.80
45843;DHT22;31563;51.744;8.252;2022-09-13T01:03:34;27.70;43.80
45843;DHT22;31563;51.744;8.252;2022-09-13T01:06:04;27.70;43.80
45843;DHT22;31563;51.744;8.252;2022-09-13T01:08:35;27.70;43.80
45843;DHT22;31563;51.744;8.252;2022-09-13T01:11:05;27.70;43.90
45843;DHT22;31563;51.744;8.252;2022-09-13T01:13:38;27.60;43.80
45843;DHT22;31563;51.744;8.252;2022-09-13T01:16:06;27.70;43.90
45843;DHT22;31563;51.744;8.252;2022-09-13T01:18:36;27.60;43.70
45843;DHT22;31563;51.744;8.252;2022-09-13T01:21:30;27.60;43.70
45843;DHT22;31563;51.744;8.252;2022-09-13T01:27:18;27.60;43.80
45843;DHT22;31563;51.744;8.252;2022-09-13T01:30:10;27.60;43.80
45843;DHT22;31563;51.744;8.252;2022-09-13T01:32:59;27.60;43.80
45843;DHT22;31563;51.744;8.252;2022-09-13T01:35:36;27.60;43.80
45843;DHT22;31563;51.744;8.252;2022-09-13T01:38:24;27.50;43.80
45843;DHT22;31563;51.744;8.252;2022-09-13T01:41:03;27.50;43.80
45843;DHT22;31563;51.744;8.252;2022-09-13T01:43:41;27.50;43.80
45843;DHT22;31563;51.744;8.252;2022-09-13T01:46:17;27.50;43.80
45843;DHT22;31563;51.744;8.252;2022-09-13T01:48:54;27.50;43.90
45843;DHT22;31563;51.744;8.252;2022-09-13T01:51:28;27.50;43.90
45843;DHT22;31563;51.744;8.252;2022-09-13T01:54:12;27.50;43.90
45843;DHT22;31563;51.744;8.252;2022-09-13T01:56:48;27.50;43.90
45843;DHT22;31563;51.744;8.252;2022-09-13T01:59:21;27.50;43.90
45843;DHT22;31563;51.744;8.252;2022-09-13T02:01:55;27.50;43.90
45843;DHT22;31563;51.744;8.252;2022-09-13T02:04:28;27.40;43.90
45843;DHT22;31563;51.744;8.252;2022-09-13T02:07:06;27.50;43.90
45843;DHT22;31563;51.744;8.252;2022-09-13T02:09:37;27.50;43.90
45843;DHT22;31563;51.744;8.252;2022-09-13T02:12:15;27.50;44.00
45843;DHT22;31563;51.744;8.252;2022-09-13T02:14:57;27.40;43.90
45843;DHT22;31563;51.744;8.252;2022-09-13T02:17:36;27.40;43.90
45843;DHT22;31563;51.744;8.252;2022-09-13T02:20:09;27.40;44.60
45843;DHT22;31563;51.744;8.252;2022-09-13T02:22:42;27.40;43.90
45843;DHT22;31563;51.744;8.252;2022-09-13T02:25:15;27.40;43.90
45843;DHT22;31563;51.744;8.252;2022-09-13T02:27:49;27.40;43.90
45843;DHT22;31563;51.744;8.252;2022-09-13T02:30:19;27.30;43.80
45843;DHT22;31563;51.744;8.252;2022-09-13T02:32:52;27.40;43.90
45843;DHT22;31563;51.744;8.252;2022-09-13T02:35:28;27.40;44.00
45843;DHT22;31563;51.744;8.252;2022-09-13T02:38:02;27.30;43.90
45843;DHT22;31563;51.744;8.252;2022-09-13T02:40:36;27.30;43.90
45843;DHT22;31563;51.744;8.252;2022-09-13T02:43:10;27.30;43.90
45843;DHT22;31563;51.744;8.252;2022-09-13T02:45:44;27.30;43.90
45843;DHT22;31563;51.744;8.252;2022-09-13T02:48:21;27.20;43.90
45843;DHT22;31563;51.744;8.252;2022-09-13T02:50:59;27.30;43.90
45843;DHT22;31563;51.744;8.252;2022-09-13T02:53:35;27.20;43.80
45843;DHT22;31563;51.744;8.252;2022-09-13T02:56:14;27.20;43.90
45843;DHT22;31563;51.744;8.252;2022-09-13T02:58:51;27.20;44.00
45843;DHT22;31563;51.744;8.252;2022-09-13T03:01:19;27.20;43.90
45843;DHT22;31563;51.744;8.252;2022-09-13T03:03:51;27.20;43.90
45843;DHT22;31563;51.744;8.252;2022-09-13T03:06:23;27.20;43.90
45843;DHT22;31563;51.744;8.252;2022-09-13T03:08:51;27.20;43.90
45843;DHT22;31563;51.744;8.252;2022-09-13T03:11:27;27.20;43.90
45843;DHT22;31563;51.744;8.252;2022-09-13T03:14:19;27.20;44.00
45843;DHT22;31563;51.744;8.252;2022-09-13T03:17:08;27.10;43.90
45843;DHT22;31563;51.744;8.252;2022-09-13T03:19:52;27.10;44.00
45843;DHT22;31563;51.744;8.252;2022-09-13T03:25:26;27.10;44.00
45843;DHT22;31563;51.744;8.252;2022-09-13T03:28:05;27.10;44.00
45843;DHT22;31563;51.744;8.252;2022-09-13T03:30:37;27.10;44.10
45843;DHT22;31563;51.744;8.252;2022-09-13T03:33:14;27.00;44.00
45843;DHT22;31563;51.744;8.252;2022-09-13T03:35:51;27.00;44.10
45843;DHT22;31563;51.744;8.252;2022-09-13T03:38:31;27.00;44.10
45843;DHT22;31563;51.744;8.252;2022-09-13T03:41:03;27.00;44.20
45843;DHT22;31563;51.744;8.252;2022-09-13T03:43:35;27.00;44.30
45843;DHT22;31563;51.744;8.252;2022-09-13T03:46:07;26.90;44.20
45843;DHT22;31563;51.744;8.252;2022-09-13T03:48:38;26.90;44.20
45843;DHT22;31563;51.744;8.252;2022-09-13T03:51:09;26.90;44.20
45843;DHT22;31563;51.744;8.252;2022-09-13T03:53:41;26.90;44.90
45843;DHT22;31563;51.744;8.252;2022-09-13T03:56:13;26.90;44.20
45843;DHT22;31563;51.744;8.252;2022-09-13T03:58:41;26.90;44.30
45843;DHT22;31563;51.744;8.252;2022-09-13T04:01:10;26.90;44.20
45843;DHT22;31563;51.744;8.252;2022-09-13T04:03:38;26.80;44.20
45843;DHT22;31563;51.744;8.252;2022-09-13T04:06:09;26.80;44.30
45843;DHT22;31563;51.744;8.252;2022-09-13T04:08:37;26.80;44.20
45843;DHT22;31563;51.744;8.252;2022-09-13T04:11:05;26.80;44.20
45843;DHT22;31563;51.744;8.252;2022-09-13T04:13:35;26.80;44.20
45843;DHT22;31563;51.744;8.252;2022-09-13T04:16:04;26.80;44.30
45843;DHT22;31563;51.744;8.252;2022-09-13T04:18:34;26.80;44.30
45843;DHT22;31563;51.744;8.252;2022-09-13T04:21:02;26.80;44.30
45843;DHT22;31563;51.744;8.252;2022-09-13T04:23:32;26.70;44.20
45843;DHT22;31563;51.744;8.252;2022-09-13T04:26:01;26.80;44.30
45843;DHT22;31563;51.744;8.252;2022-09-13T04:28:29;26.80;44.30
45843;DHT22;31563;51.744;8.252;2022-09-13T04:30:57;26.80;44.20
45843;DHT22;31563;51.744;8.252;2022-09-13T04:33:25;26.80;44.20
45843;DHT22;31563;51.744;8.252;2022-09-13T04:35:56;26.80;44.30
45843;DHT22;31563;51.744;8.252;2022-09-13T04:38:25;26.80;44.20
45843;DHT22;31563;51.744;8.252;2022-09-13T04:40:55;26.70;44.20
45843;DHT22;31563;51.744;8.252;2022-09-13T04:43:23;26.70;44.20
45843;DHT22;31563;51.744;8.252;2022-09-13T04:45:51;26.70;44.20
45843;DHT22;31563;51.744;8.252;2022-09-13T04:48:20;26.70;44.20
45843;DHT22;31563;51.744;8.252;2022-09-13T04:50:48;26.70;44.30
45843;DHT22;31563;51.744;8.252;2022-09-13T04:53:16;26.70;44.30
45843;DHT22;31563;51.744;8.252;2022-09-13T04:55:44;26.70;44.30
45843;DHT22;31563;51.744;8.252;2022-09-13T04:58:14;26.60;44.30
45843;DHT22;31563;51.744;8.252;2022-09-13T05:00:42;26.60;44.40
45843;DHT22;31563;51.744;8.252;2022-09-13T05:03:10;26.60;44.20
45843;DHT22;31563;51.744;8.252;2022-09-13T05:05:39;26.60;44.20
45843;DHT22;31563;51.744;8.252;2022-09-13T05:08:07;26.60;44.30
45843;DHT22;31563;51.744;8.252;2022-09-13T05:10:35;26.50;44.40
45843;DHT22;31563;51.744;8.252;2022-09-13T05:13:03;26.50;44.50
45843;DHT22;31563;51.744;8.252;2022-09-13T05:15:33;26.50;44.60
45843;DHT22;31563;51.744;8.252;2022-09-13T05:18:01;26.50;44.60
45843;DHT22;31563;51.744;8.252;2022-09-13T05:20:29;26.40;44.70
45843;DHT22;31563;51.744;8.252;2022-09-13T05:22:57;26.40;44.80
45843;DHT22;31563;51.744;8.252;2022-09-13T05:25:25;26.40;44.80
45843;DHT22;31563;51.744;8.252;2022-09-13T05:27:53;26.40;44.90
45843;DHT22;31563;51.744;8.252;2022-09-13T05:30:21;26.40;44.90
45843;DHT22;31563;51.744;8.252;2022-09-13T05:32:51;26.30;44.70
45843;DHT22;31563;51.744;8.252;2022-09-13T05:35:20;26.30;44.90
45843;DHT22;31563;51.744;8.252;2022-09-13T05:37:48;26.20;44.90
45843;DHT22;31563;51.744;8.252;2022-09-13T05:40:16;26.20;45.20
45843;DHT22;31563;51.744;8.252;2022-09-13T05:42:45;26.20;45.10
45843;DHT22;31563;51.744;8.252;2022-09-13T05:45:13;26.20;45.20
45843;DHT22;31563;51.744;8.252;2022-09-13T05:47:41;26.20;45.30
45843;DHT22;31563;51.744;8.252;2022-09-13T05:50:10;26.20;45.20
45843;DHT22;31563;51.744;8.252;2022-09-13T05:52:58;26.20;45.40
45843;DHT22;31563;51.744;8.252;2022-09-13T05:55:27;26.30;45.50
45843;DHT22;31563;51.744;8.252;2022-09-13T05:57:57;26.30;45.60
45843;DHT22;31563;51.744;8.252;2022-09-13T06:00:25;26.30;45.60
45843;DHT22;31563;51.744;8.252;2022-09-13T06:02:55;26.30;45.60
45843;DHT22;31563;51.744;8.252;2022-09-13T06:05:24;26.30;45.60
45843;DHT22;31563;51.744;8.252;2022-09-13T06:07:57;26.20;45.50
45843;DHT22;31563;51.744;8.252;2022-09-13T06:10:26;26.30;45.60
45843;DHT22;31563;51.744;8.252;2022-09-13T06:12:54;26.30;45.50
45843;DHT22;31563;51.744;8.252;2022-09-13T06:15:22;26.30;45.50
45843;DHT22;31563;51.744;8.252;2022-09-13T06:17:51;26.30;45.50
45843;DHT22;31563;51.744;8.252;2022-09-13T06:20:19;26.30;45.50
45843;DHT22;31563;51.744;8.252;2022-09-13T06:22:48;26.40;45.60
45843;DHT22;31563;51.744;8.252;2022-09-13T06:25:17;26.40;45.50
45843;DHT22;31563;51.744;8.252;2022-09-13T06:27:45;26.40;45.50
45843;DHT22;31563;51.744;8.252;2022-09-13T06:30:16;26.50;45.50
45843;DHT22;31563;51.744;8.252;2022-09-13T06:32:45;26.50;45.40
45843;DHT22;31563;51.744;8.252;2022-09-13T06:35:14;26.50;45.40
45843;DHT22;31563;51.744;8.252;2022-09-13T06:37:43;26.50;45.40
45843;DHT22;31563;51.744;8.252;2022-09-13T06:40:13;26.50;45.40
45843;DHT22;31563;51.744;8.252;2022-09-13T06:42:45;26.50;45.40
45843;DHT22;31563;51.744;8.252;2022-09-13T06:45:13;26.50;45.30
45843;DHT22;31563;51.744;8.252;2022-09-13T06:47:41;26.50;45.30
45843;DHT22;31563;51.744;8.252;2022-09-13T06:50:10;26.50;45.30
45843;DHT22;31563;51.744;8.252;2022-09-13T06:52:39;26.60;45.40
45843;DHT22;31563;51.744;8.252;2022-09-13T06:55:08;26.60;45.30
45843;DHT22;31563;51.744;8.252;2022-09-13T06:57:40;26.60;45.20
45843;DHT22;31563;51.744;8.252;2022-09-13T07:00:09;26.60;45.20
45843;DHT22;31563;51.744;8.252;2022-09-13T07:02:37;26.70;45.20
45843;DHT22;31563;51.744;8.252;2022-09-13T07:05:06;26.70;45.20
45843;DHT22;31563;51.744;8.252;2022-09-13T07:07:36;26.70;45.10
45843;DHT22;31563;51.744;8.252;2022-09-13T07:10:05;26.70;45.60
45843;DHT22;31563;51.744;8.252;2022-09-13T07:12:34;26.70;45.00
45843;DHT22;31563;51.744;8.252;2022-09-13T07:15:03;26.70;45.10
45843;DHT22;31563;51.744;8.252;2022-09-13T07:17:32;26.70;45.00
45843;DHT22;31563;51.744;8.252;2022-09-13T07:20:00;26.80;45.00
45843;DHT22;31563;51.744;8.252;2022-09-13T07:22:28;26.90;44.90
45843;DHT22;31563;51.744;8.252;2022-09-13T07:24:56;27.00;44.90
45843;DHT22;31563;51.744;8.252;2022-09-13T07:27:24;27.10;44.80
45843;DHT22;31563;51.744;8.252;2022-09-13T07:29:53;27.20;44.80
45843;DHT22;31563;51.744;8.252;2022-09-13T07:32:22;27.30;44.40
45843;DHT22;31563;51.744;8.252;2022-09-13T07:34:50;27.40;44.40
45843;DHT22;31563;51.744;8.252;2022-09-13T07:37:18;27.50;44.00
45843;DHT22;31563;51.744;8.252;2022-09-13T07:39:47;27.70;44.20
45843;DHT22;31563;51.744;8.252;2022-09-13T07:42:15;27.80;43.80
45843;DHT22;31563;51.744;8.252;2022-09-13T07:44:43;27.80;43.60
45843;DHT22;31563;51.744;8.252;2022-09-13T07:47:11;27.90;43.50
45843;DHT22;31563;51.744;8.252;2022-09-13T07:49:41;28.00;43.30
45843;DHT22;31563;51.744;8.252;2022-09-13T07:52:09;28.20;43.50
45843;DHT22;31563;51.744;8.252;2022-09-13T07:54:37;28.60;43.90
45843;DHT22;31563;51.744;8.252;2022-09-13T07:57:05;29.10;42.60
45843;DHT22;31563;51.744;8.252;2022-09-13T07:59:33;29.50;42.30
45843;DHT22;31563;51.744;8.252;2022-09-13T08:02:01;30.00;42.20
45843;DHT22;31563;51.744;8.252;2022-09-13T08:04:30;30.40;41.30
45843;DHT22;31563;51.744;8.252;2022-09-13T08:07:03;30.80;40.80
45843;DHT22;31563;51.744;8.252;2022-09-13T08:09:31;31.10;40.30
45843;DHT22;31563;51.744;8.252;2022-09-13T08:12:00;31.40;39.70
45843;DHT22;31563;51.744;8.252;2022-09-13T08:14:28;31.70;39.60
45843;DHT22;31563;51.744;8.252;2022-09-13T08:16:56;32.10;39.50
45843;DHT22;31563;51.744;8.252;2022-09-13T08:19:24;32.40;38.80
45843;DHT22;31563;51.744;8.252;2022-09-13T08:21:52;32.80;38.30
45843;DHT22;31563;51.744;8.252;2022-09-13T08:24:22;32.60;37.40
45843;DHT22;31563;51.744;8.252;2022-09-13T08:26:53;32.40;37.60
45843;DHT22;31563;51.744;8.252;2022-09-13T08:29:21;32.30;38.00
45843;DHT22;31563;51.744;8.252;2022-09-13T08:31:51;32.30;38.20
45843;DHT22;31563;51.744;8.252;2022-09-13T08:34:19;32.70;38.80
45843;DHT22;31563;51.744;8.252;2022-09-13T08:36:47;33.20;38.00
45843;DHT22;31563;51.744;8.252;2022-09-13T08:39:15;33.70;37.50
45843;DHT22;31563;51.744;8.252;2022-09-13T08:42:10;34.10;36.80
45843;DHT22;31563;51.744;8.252;2022-09-13T08:44:44;34.10;36.50
45843;DHT22;31563;51.744;8.252;2022-09-13T08:47:25;34.20;36.60
45843;DHT22;31563;51.744;8.252;2022-09-13T08:50:00;34.30;36.40
45843;DHT22;31563;51.744;8.252;2022-09-13T08:52:34;34.30;36.50
45843;DHT22;31563;51.744;8.252;2022-09-13T08:55:18;34.20;36.10
45843;DHT22;31563;51.744;8.252;2022-09-13T08:57:54;34.20;36.20
45843;DHT22;31563;51.744;8.252;2022-09-13T09:00:29;34.20;36.20
45843;DHT22;31563;51.744;8.252;2022-09-13T09:03:11;34.10;36.10
45843;DHT22;31563;51.744;8.252;2022-09-13T09:05:45;34.10;36.30
45843;DHT22;31563;51.744;8.252;2022-09-13T09:08:28;34.00;36.40
45843;DHT22;31563;51.744;8.252;2022-09-13T09:11:02;33.90;36.50
45843;DHT22;31563;51.744;8.252;2022-09-13T09:13:40;34.00;36.60
45843;DHT22;31563;51.744;8.252;2022-09-13T09:16:20;34.10;36.70
45843;DHT22;31563;51.744;8.252;2022-09-13T09:18:52;34.20;36.60
45843;DHT22;31563;51.744;8.252;2022-09-13T09:21:22;34.50;36.80
45843;DHT22;31563;51.744;8.252;2022-09-13T09:23:51;35.00;36.90
45843;DHT22;31563;51.744;8.252;2022-09-13T09:26:22;35.60;36.20
45843;DHT22;31563;51.744;8.252;2022-09-13T09:28:56;36.00;35.60
45843;DHT22;31563;51.744;8.252;2022-09-13T09:31:31;36.20;35.10
45843;DHT22;31563;51.744;8.252;2022-09-13T09:34:09;36.60;35.40
45843;DHT22;31563;51.744;8.252;2022-09-13T09:36:40;37.00;34.70
45843;DHT22;31563;51.744;8.252;2022-09-13T09:39:13;37.60;35.60
45843;DHT22;31563;51.744;8.252;2022-09-13T09:41:42;38.20;34.10
45843;DHT22;31563;51.744;8.252;2022-09-13T09:44:17;38.50;34.00
45843;DHT22;31563;51.744;8.252;2022-09-13T09:46:49;39.10;34.40
45843;DHT22;31563;51.744;8.252;2022-09-13T09:49:22;39.90;33.90
45843;DHT22;31563;51.744;8.252;2022-09-13T09:52:16;40.10;32.00
45843;DHT22;31563;51.744;8.252;2022-09-13T09:54:47;40.50;32.00
45843;DHT22;31563;51.744;8.252;2022-09-13T09:57:16;40.60;31.80
45843;DHT22;31563;51.744;8.252;2022-09-13T09:59:47;40.70;31.40
45843;DHT22;31563;51.744;8.252;2022-09-13T10:02:17;40.20;31.30
45843;DHT22;31563;51.744;8.252;2022-09-13T10:04:54;40.60;32.10
45843;DHT22;31563;51.744;8.252;2022-09-13T10:07:27;41.00;31.60
45843;DHT22;31563;51.744;8.252;2022-09-13T10:09:59;41.20;31.20
45843;DHT22;31563;51.744;8.252;2022-09-13T10:12:31;41.10;31.10
45843;DHT22;31563;51.744;8.252;2022-09-13T10:15:15;40.70;30.80
45843;DHT22;31563;51.744;8.252;2022-09-13T10:18:13;40.30;31.30
45843;DHT22;31563;51.744;8.252;2022-09-13T10:21:04;40.60;32.20
45843;DHT22;31563;51.744;8.252;2022-09-13T10:23:33;41.10;31.30
45843;DHT22;31563;51.744;8.252;2022-09-13T10:26:04;41.20;31.70
45843;DHT22;31563;51.744;8.252;2022-09-13T10:28:39;41.40;31.10
45843;DHT22;31563;51.744;8.252;2022-09-13T10:31:11;41.30;30.80
45843;DHT22;31563;51.744;8.252;2022-09-13T10:33:50;40.80;30.80
45843;DHT22;31563;51.744;8.252;2022-09-13T10:36:22;40.40;31.10
45843;DHT22;31563;51.744;8.252;2022-09-13T10:39:13;39.80;31.40
45843;DHT22;31563;51.744;8.252;2022-09-13T10:41:48;39.40;32.10
45843;DHT22;31563;51.744;8.252;2022-09-13T10:44:31;39.20;32.50
45843;DHT22;31563;51.744;8.252;2022-09-13T10:47:05;39.20;32.80
45843;DHT22;31563;51.744;8.252;2022-09-13T10:49:40;39.50;32.80
45843;DHT22;31563;51.744;8.252;2022-09-13T10:52:31;39.50;32.50
45843;DHT22;31563;51.744;8.252;2022-09-13T10:55:29;39.50;32.80
45843;DHT22;31563;51.744;8.252;2022-09-13T10:58:16;40.10;33.40
45843;DHT22;31563;51.744;8.252;2022-09-13T11:00:55;40.70;32.60
45843;DHT22;31563;51.744;8.252;2022-09-13T11:03:39;40.70;31.70
45843;DHT22;31563;51.744;8.252;2022-09-13T11:06:15;40.60;32.30
45843;DHT22;31563;51.744;8.252;2022-09-13T11:08:53;41.20;32.30
45843;DHT22;31563;51.744;8.252;2022-09-13T11:11:31;41.70;32.00
45843;DHT22;31563;51.744;8.252;2022-09-13T11:14:21;42.30;31.40
45843;DHT22;31563;51.744;8.252;2022-09-13T11:17:01;42.60;31.50
45843;DHT22;31563;51.744;8.252;2022-09-13T11:19:51;43.00;30.80
45843;DHT22;31563;51.744;8.252;2022-09-13T11:22:47;42.80;30.20
45843;DHT22;31563;51.744;8.252;2022-09-13T11:25:32;42.60;30.30
45843;DHT22;31563;51.744;8.252;2022-09-13T11:28:10;42.20;30.30
45843;DHT22;31563;51.744;8.252;2022-09-13T11:30:49;42.00;30.70
45843;DHT22;31563;51.744;8.252;2022-09-13T11:33:30;42.20;31.20
45843;DHT22;31563;51.744;8.252;2022-09-13T11:36:32;42.50;31.00
45843;DHT22;31563;51.744;8.252;2022-09-13T11:39:08;42.60;30.60
45843;DHT22;31563;51.744;8.252;2022-09-13T11:41:45;42.60;30.80
45843;DHT22;31563;51.744;8.252;2022-09-13T11:47:13;42.80;30.70
45843;DHT22;31563;51.744;8.252;2022-09-13T11:49:54;42.90;31.00
45843;DHT22;31563;51.744;8.252;2022-09-13T11:52:34;43.30;30.80
45843;DHT22;31563;51.744;8.252;2022-09-13T11:55:14;43.60;30.30
45843;DHT22;31563;51.744;8.252;2022-09-13T11:57:47;43.50;30.20
45843;DHT22;31563;51.744;8.252;2022-09-13T12:00:21;43.20;30.00
45843;DHT22;31563;51.744;8.252;2022-09-13T12:02:57;42.80;30.20
45843;DHT22;31563;51.744;8.252;2022-09-13T12:05:30;42.40;30.60
45843;DHT22;31563;51.744;8.252;2022-09-13T12:08:05;41.90;30.70
45843;DHT22;31563;51.744;8.252;2022-09-13T12:10:42;41.50;31.00
45843;DHT22;31563;51.744;8.252;2022-09-13T12:13:17;41.10;31.60
45843;DHT22;31563;51.744;8.252;2022-09-13T12:15:48;40.80;32.00
45843;DHT22;31563;51.744;8.252;2022-09-13T12:18:21;40.90;32.30
45843;DHT22;31563;51.744;8.252;2022-09-13T12:20:53;41.20;32.80
45843;DHT22;31563;51.744;8.252;2022-09-13T12:23:30;41.90;32.30
45843;DHT22;31563;51.744;8.252;2022-09-13T12:26:02;42.60;31.90
45843;DHT22;31563;51.744;8.252;2022-09-13T12:28:35;43.00;31.20
45843;DHT22;31563;51.744;8.252;2022-09-13T12:31:08;43.00;30.70
45843;DHT22;31563;51.744;8.252;2022-09-13T12:33:38;42.70;30.80
45843;DHT22;31563;51.744;8.252;2022-09-13T12:36:27;42.40;30.90
45843;DHT22;31563;51.744;8.252;2022-09-13T12:39:31;41.90;31.00
45843;DHT22;31563;51.744;8.252;2022-09-13T12:42:21;41.30;31.40
45843;DHT22;31563;51.744;8.252;2022-09-13T12:45:06;40.80;31.60
45843;DHT22;31563;51.744;8.252;2022-09-13T12:48:08;40.40;32.00
45843;DHT22;31563;51.744;8.252;2022-09-13T12:50:54;40.00;32.20
45843;DHT22;31563;51.744;8.252;2022-09-13T13:00:08;39.00;33.40
45843;DHT22;31563;51.744;8.252;2022-09-13T13:02:40;38.70;34.00
45843;DHT22;31563;51.744;8.252;2022-09-13T13:05:21;38.60;34.40
45843;DHT22;31563;51.744;8.252;2022-09-13T13:07:54;38.50;34.30
45843;DHT22;31563;51.744;8.252;2022-09-13T13:10:26;38.60;34.60
45843;DHT22;31563;51.744;8.252;2022-09-13T13:13:09;38.70;34.70
45843;DHT22;31563;51.744;8.252;2022-09-13T13:15:59;38.80;34.50
45843;DHT22;31563;51.744;8.252;2022-09-13T13:18:31;38.80;34.50
45843;DHT22;31563;51.744;8.252;2022-09-13T13:21:34;38.80;34.50
45843;DHT22;31563;51.744;8.252;2022-09-13T13:24:36;38.80;34.50
45843;DHT22;31563;51.744;8.252;2022-09-13T13:27:33;38.80;34.50
45843;DHT22;31563;51.744;8.252;2022-09-13T13:33:23;38.70;34.40
45843;DHT22;31563;51.744;8.252;2022-09-13T13:35:53;38.90;34.70
45843;DHT22;31563;51.744;8.252;2022-09-13T13:38:40;39.00;34.70
45843;DHT22;31563;51.744;8.252;2022-09-13T13:41:48;39.20;34.50
45843;DHT22;31563;51.744;8.252;2022-09-13T13:44:55;39.70;35.10
45843;DHT22;31563;51.744;8.252;2022-09-13T13:50:30;41.60;34.00
45843;DHT22;31563;51.744;8.252;2022-09-13T13:53:21;41.80;32.60
45843;DHT22;31563;51.744;8.252;2022-09-13T13:56:07;41.40;32.20
45843;DHT22;31563;51.744;8.252;2022-09-13T13:58:45;40.90;32.40
45843;DHT22;31563;51.744;8.252;2022-09-13T14:01:19;40.60;32.70
45843;DHT22;31563;51.744;8.252;2022-09-13T14:07:05;40.40;33.00
45843;DHT22;31563;51.744;8.252;2022-09-13T14:09:51;40.20;33.20
45843;DHT22;31563;51.744;8.252;2022-09-13T14:12:33;40.20;33.50
45843;DHT22;31563;51.744;8.252;2022-09-13T14:15:19;40.30;33.50
45843;DHT22;31563;51.744;8.252;2022-09-13T14:20:57;40.20;33.40
45843;DHT22;31563;51.744;8.252;2022-09-13T14:23:28;40.30;33.60
45843;DHT22;31563;51.744;8.252;2022-09-13T14:25:58;40.00;32.30
45843;DHT22;31563;51.744;8.252;2022-09-13T14:28:27;39.40;32.30
45843;DHT22;31563;51.744;8.252;2022-09-13T14:30:57;38.80;32.90
45843;DHT22;31563;51.744;8.252;2022-09-13T14:33:27;38.40;33.70
45843;DHT22;31563;51.744;8.252;2022-09-13T14:36:03;38.20;34.10
45843;DHT22;31563;51.744;8.252;2022-09-13T14:38:34;38.20;34.60
45843;DHT22;31563;51.744;8.252;2022-09-13T14:41:11;38.10;34.00
45843;DHT22;31563;51.744;8.252;2022-09-13T14:43:41;37.80;34.00
45843;DHT22;31563;51.744;8.252;2022-09-13T14:46:11;37.30;34.40
45843;DHT22;31563;51.744;8.252;2022-09-13T14:48:45;37.00;35.10
45843;DHT22;31563;51.744;8.252;2022-09-13T14:51:20;36.80;35.80
45843;DHT22;31563;51.744;8.252;2022-09-13T14:53:54;36.90;36.40
45843;DHT22;31563;51.744;8.252;2022-09-13T14:56:31;37.30;35.80
45843;DHT22;31563;51.744;8.252;2022-09-13T14:59:02;37.70;36.00
45843;DHT22;31563;51.744;8.252;2022-09-13T15:01:33;38.10;35.20
45843;DHT22;31563;51.744;8.252;2022-09-13T15:04:03;38.00;34.30
45843;DHT22;31563;51.744;8.252;2022-09-13T15:06:35;37.60;34.70
45843;DHT22;31563;51.744;8.252;2022-09-13T15:09:25;37.20;34.70
45843;DHT22;31563;51.744;8.252;2022-09-13T15:11:58;36.80;35.10
45843;DHT22;31563;51.744;8.252;2022-09-13T15:14:29;36.50;35.70
45843;DHT22;31563;51.744;8.252;2022-09-13T15:16:59;36.40;36.10
45843;DHT22;31563;51.744;8.252;2022-09-13T15:19:38;36.30;35.90
45843;DHT22;31563;51.744;8.252;2022-09-13T15:22:13;36.20;36.00
45843;DHT22;31563;51.744;8.252;2022-09-13T15:24:46;36.10;36.20
45843;DHT22;31563;51.744;8.252;2022-09-13T15:27:20;36.00;36.10
45843;DHT22;31563;51.744;8.252;2022-09-13T15:29:51;35.80;36.40
45843;DHT22;31563;51.744;8.252;2022-09-13T15:32:30;36.00;37.10
45843;DHT22;31563;51.744;8.252;2022-09-13T15:34:59;36.10;36.60
45843;DHT22;31563;51.744;8.252;2022-09-13T15:37:37;36.40;37.00
45843;DHT22;31563;51.744;8.252;2022-09-13T15:40:17;36.90;36.90
45843;DHT22;31563;51.744;8.252;2022-09-13T15:42:47;37.20;36.40
45843;DHT22;31563;51.744;8.252;2022-09-13T15:45:16;37.40;35.80
45843;DHT22;31563;51.744;8.252;2022-09-13T15:47:45;37.70;35.30
45843;DHT22;31563;51.744;8.252;2022-09-13T15:50:22;37.70;35.30
45843;DHT22;31563;51.744;8.252;2022-09-13T15:52:50;37.50;35.00
45843;DHT22;31563;51.744;8.252;2022-09-13T15:55:20;37.30;35.20
45843;DHT22;31563;51.744;8.252;2022-09-13T15:57:48;37.30;35.60
45843;DHT22;31563;51.744;8.252;2022-09-13T16:00:19;37.30;35.70
45843;DHT22;31563;51.744;8.252;2022-09-13T16:02:47;37.30;35.60
45843;DHT22;31563;51.744;8.252;2022-09-13T16:05:16;37.30;35.70
45843;DHT22;31563;51.744;8.252;2022-09-13T16:07:45;37.30;35.60
45843;DHT22;31563;51.744;8.252;2022-09-13T16:10:16;37.20;35.50
45843;DHT22;31563;51.744;8.252;2022-09-13T16:12:46;37.00;35.60
45843;DHT22;31563;51.744;8.252;2022-09-13T16:15:15;37.00;36.50
45843;DHT22;31563;51.744;8.252;2022-09-13T16:17:43;36.80;35.80
45843;DHT22;31563;51.744;8.252;2022-09-13T16:20:12;36.70;36.00
45843;DHT22;31563;51.744;8.252;2022-09-13T16:22:41;36.60;36.20
45843;DHT22;31563;51.744;8.252;2022-09-13T16:25:11;36.50;36.30
45843;DHT22;31563;51.744;8.252;2022-09-13T16:27:40;36.40;36.60
45843;DHT22;31563;51.744;8.252;2022-09-13T16:30:14;36.30;36.80
45843;DHT22;31563;51.744;8.252;2022-09-13T16:32:43;36.20;37.00
45843;DHT22;31563;51.744;8.252;2022-09-13T16:35:11;36.10;37.10
45843;DHT22;31563;51.744;8.252;2022-09-13T16:37:40;36.10;37.20
45843;DHT22;31563;51.744;8.252;2022-09-13T16:40:09;36.00;37.10
45843;DHT22;31563;51.744;8.252;2022-09-13T16:42:38;35.90;37.20